createdAt,value
2022-11-23T00:02:22.000Z,98932.16
2022-11-23T00:04:48.472Z,98939.63
2022-11-23T00:07:14.896Z,98932.63
2022-11-23T00:09:41.524Z,98937.47
2022-11-23T00:12:08.281Z,98947.59
2022-11-23T00:14:34.827Z,98947.59
2022-11-23T00:17:01.403Z,98936.81
2022-11-23T00:19:27.835Z,98941.63
2022-11-23T00:21:54.358Z,98944.31
2022-11-23T00:24:20.844Z,98950.97
2022-11-23T00:26:47.888Z,98955.22
2022-11-23T00:29:14.344Z,98954.88
2022-11-23T00:31:40.757Z,98948.97
2022-11-23T00:34:07.320Z,98952.13
2022-11-23T00:36:33.752Z,98961.25
2022-11-23T00:39:01.800Z,98955.31
2022-11-23T00:41:28.902Z,98960.09
2022-11-23T00:43:55.368Z,98946.16
2022-11-23T00:46:23.292Z,98955.25
2022-11-23T00:48:51.112Z,98953.63
2022-11-23T00:51:19.168Z,98947.72
2022-11-23T00:53:46.042Z,98942.59
2022-11-23T00:56:13.142Z,98942.84
2022-11-23T00:58:39.653Z,98943.91
2022-11-23T01:01:10.766Z,98944.97
2022-11-23T01:03:38.832Z,98939.59
2022-11-23T01:06:06.325Z,98946.00
2022-11-23T01:08:32.754Z,98942.53
2022-11-23T01:11:01.001Z,98946.00
2022-11-23T01:13:27.737Z,98940.09
2022-11-23T01:15:54.136Z,98941.16
2022-11-23T01:18:20.611Z,98941.94
2022-11-23T01:20:47.072Z,98942.78
2022-11-23T01:23:13.567Z,98930.44
2022-11-23T01:25:40.184Z,98930.44
2022-11-23T01:28:06.615Z,98939.28
2022-11-23T01:30:34.533Z,98939.28
2022-11-23T01:33:00.926Z,98938.22
2022-11-23T01:35:28.190Z,98954.28
2022-11-23T01:37:54.738Z,98947.31
2022-11-23T01:40:21.127Z,98959.66
2022-11-23T01:42:53.812Z,98960.72
2022-11-23T01:45:29.107Z,98965.81
2022-11-23T01:47:55.538Z,98965.81
2022-11-23T01:50:21.907Z,98969.31
2022-11-23T01:52:48.461Z,98963.13
2022-11-23T01:55:14.858Z,98970.13
2022-11-23T01:57:44.038Z,98968.50
2022-11-23T02:00:11.017Z,98963.13
2022-11-23T02:02:38.878Z,98969.56
2022-11-23T02:05:05.506Z,98967.13
2022-11-23T02:07:32.610Z,98970.88
2022-11-23T02:09:59.199Z,98976.22
2022-11-23T02:12:25.728Z,98964.69
2022-11-23T02:14:52.216Z,98968.44
2022-11-23T02:17:18.958Z,98977.53
2022-11-23T02:20:00.711Z,98975.09
2022-11-23T02:22:32.406Z,98975.91
2022-11-23T02:25:00.300Z,98972.44
2022-11-23T02:27:27.319Z,98968.91
2022-11-23T02:29:55.079Z,98983.38
2022-11-23T02:32:23.423Z,98979.63
2022-11-23T02:34:50.224Z,98980.22
2022-11-23T02:37:17.328Z,98985.56
2022-11-23T02:39:49.619Z,98985.31
2022-11-23T02:42:16.053Z,98984.53
2022-11-23T02:44:58.216Z,98971.69
2022-11-23T02:47:24.710Z,98965.28
2022-11-23T02:49:51.147Z,98965.81
2022-11-23T02:52:18.579Z,98966.66
2022-11-23T02:54:44.996Z,98967.44
2022-11-23T02:57:11.415Z,98977.69
2022-11-23T02:59:37.797Z,98972.88
2022-11-23T03:02:04.723Z,98981.50
2022-11-23T03:04:31.291Z,98968.91
2022-11-23T03:06:58.295Z,98971.31
2022-11-23T03:09:26.240Z,98976.69
2022-11-23T03:11:53.542Z,98977.81
2022-11-23T03:14:19.976Z,98968.72
2022-11-23T03:16:46.368Z,98975.47
2022-11-23T03:19:12.721Z,98972.53
2022-11-23T03:21:39.133Z,98970.91
2022-11-23T03:24:05.641Z,98970.44
2022-11-23T03:26:32.024Z,98983.31
2022-11-23T03:28:58.393Z,98969.91
2022-11-23T03:31:24.801Z,98963.50
2022-11-23T03:33:51.188Z,98975.84
2022-11-23T03:36:17.600Z,98965.69
2022-11-23T03:38:43.970Z,98971.63
2022-11-23T03:41:10.501Z,98964.38
2022-11-23T03:43:37.001Z,98962.81
2022-11-23T03:46:03.613Z,98955.09
2022-11-23T03:48:30.419Z,98953.53
2022-11-23T03:50:57.082Z,98964.81
2022-11-23T03:53:23.741Z,98958.72
2022-11-23T03:55:50.481Z,98964.88
2022-11-23T03:58:16.954Z,98946.69
2022-11-23T04:00:43.726Z,98956.09
2022-11-23T04:03:10.199Z,98964.69
2022-11-23T04:05:36.536Z,98952.66
2022-11-23T04:08:03.042Z,98958.84
2022-11-23T04:10:29.458Z,98961.28
2022-11-23T04:12:55.809Z,98964.50
2022-11-23T04:15:22.231Z,98964.50
2022-11-23T04:17:48.672Z,98994.31
2022-11-23T04:20:15.401Z,98965.63
2022-11-23T04:22:41.775Z,98967.25
2022-11-23T04:25:08.474Z,98962.72
2022-11-23T04:27:34.821Z,98971.81
2022-11-23T04:30:01.250Z,98972.63
2022-11-23T04:32:27.817Z,98969.38
2022-11-23T04:34:54.213Z,98969.38
2022-11-23T04:37:20.633Z,98971.50
2022-11-23T04:39:47.010Z,98976.59
2022-11-23T04:42:13.888Z,98968.81
2022-11-23T04:44:40.396Z,98975.22
2022-11-23T04:47:06.743Z,98966.66
2022-11-23T04:49:33.312Z,98969.56
2022-11-23T04:51:59.895Z,98974.13
2022-11-23T04:54:26.281Z,98975.16
2022-11-23T04:56:54.261Z,98980.78
2022-11-23T04:59:20.674Z,98972.75
2022-11-23T05:01:47.084Z,98974.63
2022-11-23T05:04:17.568Z,98967.63
2022-11-23T05:06:44.427Z,98968.13
2022-11-23T05:09:10.823Z,98965.97
2022-11-23T05:11:37.169Z,98966.50
2022-11-23T05:14:03.630Z,98971.88
2022-11-23T05:16:30.010Z,98970.25
2022-11-23T05:18:56.559Z,98969.69
2022-11-23T05:21:22.950Z,98970.25
2022-11-23T05:23:49.290Z,98986.06
2022-11-23T05:26:15.726Z,98974.03
2022-11-23T05:28:42.273Z,98969.81
2022-11-23T05:31:09.252Z,98968.28
2022-11-23T05:33:36.127Z,98978.81
2022-11-23T05:36:02.864Z,98980.72
2022-11-23T05:38:29.239Z,98978.09
2022-11-23T05:40:55.642Z,98974.38
2022-11-23T05:43:22.006Z,98981.38
2022-11-23T05:45:48.486Z,98981.38
2022-11-23T05:48:14.947Z,98988.31
2022-11-23T05:50:41.373Z,98983.78
2022-11-23T05:53:07.808Z,98991.00
2022-11-23T05:55:34.732Z,98981.38
2022-11-23T05:58:01.443Z,98978.69
2022-11-23T06:00:27.851Z,98979.75
2022-11-23T06:02:59.980Z,98981.09
2022-11-23T06:05:26.420Z,98982.97
2022-11-23T06:07:53.842Z,98990.53
2022-11-23T06:10:20.357Z,98981.41
2022-11-23T06:12:47.227Z,98980.84
2022-11-23T06:15:13.683Z,98985.16
2022-11-23T06:17:40.127Z,98996.44
2022-11-23T06:20:06.968Z,98991.06
2022-11-23T06:22:33.495Z,98991.06
2022-11-23T06:25:00.034Z,98992.19
2022-11-23T06:27:26.802Z,98994.88
2022-11-23T06:29:53.340Z,98993.03
2022-11-23T06:32:19.785Z,98993.03
2022-11-23T06:34:46.210Z,98999.75
2022-11-23T06:37:13.094Z,99000.56
2022-11-23T06:39:40.283Z,99001.88
2022-11-23T06:42:31.345Z,99009.41
2022-11-23T06:44:53.171Z,99011.88
2022-11-23T06:47:24.569Z,99011.03
2022-11-23T06:49:52.556Z,99024.44
2022-11-23T06:52:19.039Z,99014.28
2022-11-23T06:54:46.243Z,99016.41
2022-11-23T06:57:12.676Z,99017.78
2022-11-23T06:59:44.307Z,99021.25
2022-11-23T07:02:11.783Z,99019.66
2022-11-23T07:04:38.257Z,99010.53
2022-11-23T07:07:04.764Z,99015.88
2022-11-23T07:09:31.489Z,99011.59
2022-11-23T07:11:58.204Z,99021.75
2022-11-23T07:14:24.640Z,99017.47
2022-11-23T07:16:51.548Z,99030.88
2022-11-23T07:19:17.986Z,99052.34
2022-11-23T07:21:45.053Z,99029.50
2022-11-23T07:24:11.528Z,99031.38
2022-11-23T07:26:37.993Z,99052.84
2022-11-23T07:29:04.409Z,99037.53
2022-11-23T07:31:31.199Z,99042.69
2022-11-23T07:33:57.705Z,99039.75
2022-11-23T07:36:24.206Z,99053.72
2022-11-23T07:38:50.653Z,99062.09
2022-11-23T07:41:17.119Z,99067.44
2022-11-23T07:43:43.556Z,99058.66
2022-11-23T07:46:10.003Z,99068.91
2022-11-23T07:48:36.873Z,99057.34
2022-11-23T07:51:03.575Z,99054.72
2022-11-23T07:53:30.077Z,99054.72
2022-11-23T07:55:57.853Z,99050.47
2022-11-23T07:58:24.897Z,99053.75
2022-11-23T08:00:51.357Z,99058.84
2022-11-23T08:03:33.087Z,99064.28
2022-11-23T08:05:59.653Z,99056.78
2022-11-23T08:08:26.105Z,99074.81
2022-11-23T08:10:54.135Z,99071.63
2022-11-23T08:13:21.898Z,99078.44
2022-11-23T08:15:53.773Z,99085.16
2022-11-23T08:18:21.449Z,99077.19
2022-11-23T08:20:47.896Z,99083.66
2022-11-23T08:23:14.340Z,99068.13
2022-11-23T08:25:41.120Z,99088.03
2022-11-23T08:28:07.599Z,99076.78
2022-11-23T08:30:34.458Z,99072.50
2022-11-23T08:33:07.042Z,99076.31
2022-11-23T08:35:37.613Z,99081.16
2022-11-23T08:38:04.427Z,99076.09
2022-11-23T08:40:30.919Z,99079.41
2022-11-23T08:42:57.338Z,99084.81
2022-11-23T08:45:24.051Z,99088.41
2022-11-23T08:47:51.180Z,99084.44
2022-11-23T08:50:18.107Z,99091.22
2022-11-23T08:52:44.608Z,99083.50
2022-11-23T08:55:11.415Z,99089.72
2022-11-23T08:57:37.893Z,99082.75
2022-11-23T09:00:05.102Z,99085.00
2022-11-23T09:02:31.821Z,99088.03
2022-11-23T09:04:58.355Z,99093.44
2022-11-23T09:07:24.867Z,99094.84
2022-11-23T09:09:51.353Z,99085.72
2022-11-23T09:12:17.787Z,99088.44
2022-11-23T09:14:44.311Z,99084.69
2022-11-23T09:17:10.782Z,99095.47
2022-11-23T09:19:37.225Z,99088.22
2022-11-23T09:22:03.666Z,99086.31
2022-11-23T09:24:30.420Z,99094.91
2022-11-23T09:26:57.038Z,99092.22
2022-11-23T09:29:25.489Z,99100.88
2022-11-23T09:31:51.955Z,99100.31
2022-11-23T09:34:18.407Z,99092.19
2022-11-23T09:36:44.863Z,99103.50
2022-11-23T09:39:11.390Z,99097.81
2022-11-23T09:41:56.579Z,99111.78
2022-11-23T09:44:41.803Z,99099.66
2022-11-23T09:47:28.283Z,99099.09
2022-11-23T09:49:54.653Z,99105.25
2022-11-23T09:52:24.157Z,99108.22
2022-11-23T09:54:53.307Z,99109.84
2022-11-23T09:57:22.457Z,99118.16
2022-11-23T09:59:58.854Z,99106.59
2022-11-23T10:02:28.862Z,99115.22
2022-11-23T10:07:37.716Z,99118.16
2022-11-23T10:13:06.726Z,99124.63
2022-11-23T10:15:38.179Z,99114.69
2022-11-23T10:18:04.698Z,99113.38
2022-11-23T10:20:43.139Z,99119.56
2022-11-23T10:23:28.465Z,99119.84
2022-11-23T10:25:54.915Z,99123.09
2022-11-23T10:28:22.557Z,99116.91
2022-11-23T10:30:56.615Z,99120.16
2022-11-23T10:33:31.539Z,99121.25
2022-11-23T10:35:58.050Z,99114.78
2022-11-23T10:38:27.917Z,99122.34
2022-11-23T10:41:06.830Z,99126.41
2022-11-23T10:43:44.213Z,99122.41
2022-11-23T10:46:29.382Z,99136.94
2022-11-23T10:48:56.144Z,99118.66
2022-11-23T10:51:32.954Z,99123.53
2022-11-23T10:54:05.585Z,99135.66
2022-11-23T10:56:33.368Z,99121.13
2022-11-23T10:58:59.924Z,99120.63
2022-11-23T11:01:27.376Z,99124.66
2022-11-23T11:03:54.721Z,99120.41
2022-11-23T11:06:25.648Z,99119.88
2022-11-23T11:08:55.641Z,99122.28
2022-11-23T11:11:22.009Z,99122.59
2022-11-23T11:13:48.807Z,99109.63
2022-11-23T11:16:21.284Z,99124.19
2022-11-23T11:18:47.993Z,99123.13
2022-11-23T11:21:20.017Z,99110.75
2022-11-23T11:23:54.025Z,99109.94
2022-11-23T11:26:24.826Z,99114.00
2022-11-23T11:28:55.657Z,99104.88
2022-11-23T11:31:22.023Z,99118.84
2022-11-23T11:33:55.826Z,99110.50
2022-11-23T11:36:22.753Z,99103.00
2022-11-23T11:39:17.231Z,99111.59
2022-11-23T11:41:40.901Z,99090.88
2022-11-23T11:44:17.793Z,99104.88
2022-11-23T11:46:46.795Z,99108.13
2022-11-23T11:49:15.939Z,99109.75
2022-11-23T11:51:45.426Z,99117.84
2022-11-23T11:54:19.740Z,99116.78
2022-11-23T11:56:54.351Z,99111.38
2022-11-23T11:59:33.694Z,99115.94
2022-11-23T12:02:09.542Z,99118.38
2022-11-23T12:04:49.826Z,99117.88
2022-11-23T12:07:21.734Z,99123.50
2022-11-23T12:09:51.251Z,99116.00
2022-11-23T12:12:19.412Z,99109.25
2022-11-23T12:14:49.082Z,99109.56
2022-11-23T12:17:32.487Z,99108.19
2022-11-23T12:33:36.880Z,99089.94
2022-11-23T12:36:09.251Z,99085.13
2022-11-23T12:38:35.669Z,99082.44
2022-11-23T12:41:10.057Z,99082.44
2022-11-23T12:43:49.864Z,99073.81
2022-11-23T12:46:25.566Z,99076.78
2022-11-23T12:48:51.936Z,99078.66
2022-11-23T12:51:32.051Z,99079.19
2022-11-23T12:54:07.466Z,99083.50
2022-11-23T12:56:36.758Z,99084.56
2022-11-23T12:59:03.772Z,99075.91
2022-11-23T13:01:36.923Z,99078.00
2022-11-23T13:04:09.237Z,99063.09
2022-11-23T13:06:35.604Z,99058.97
2022-11-23T13:09:04.796Z,99074.59
2022-11-23T13:11:31.150Z,99066.66
2022-11-23T13:14:17.835Z,99069.59
2022-11-23T13:16:47.505Z,99065.78
2022-11-23T13:19:17.112Z,99061.44
2022-11-23T13:21:45.001Z,99064.97
2022-11-23T13:24:32.100Z,99061.97
2022-11-23T13:27:14.186Z,99049.56
2022-11-23T13:29:49.689Z,99047.66
2022-11-23T13:32:34.912Z,99046.28
2022-11-23T13:35:03.840Z,99057.66
2022-11-23T13:37:30.281Z,99045.25
2022-11-23T13:39:57.738Z,99042.88
2022-11-23T13:42:27.736Z,99046.16
2022-11-23T13:45:14.229Z,99040.47
2022-11-23T13:47:43.677Z,99045.88
2022-11-23T13:50:17.334Z,99042.09
2022-11-23T13:52:49.144Z,99045.03
2022-11-23T13:55:15.565Z,99035.56
2022-11-23T13:57:43.019Z,99031.78
2022-11-23T14:00:28.340Z,99022.56
2022-11-23T14:03:14.751Z,99022.03
2022-11-23T14:05:50.326Z,99021.53
2022-11-23T14:08:18.714Z,99018.81
2022-11-23T14:10:45.122Z,99019.41
2022-11-23T14:13:18.833Z,99018.28
2022-11-23T14:15:52.674Z,99018.28
2022-11-23T14:18:38.048Z,99009.09
2022-11-23T14:21:10.489Z,99014.50
2022-11-23T14:23:36.857Z,99018.28
2022-11-23T14:26:21.868Z,99017.19
2022-11-23T14:29:17.710Z,99022.31
2022-11-23T14:31:56.211Z,99025.31
2022-11-23T14:34:36.218Z,99025.31
2022-11-23T14:37:28.803Z,99023.16
2022-11-23T14:40:01.450Z,99020.44
2022-11-23T14:42:29.253Z,99021.53
2022-11-23T14:44:57.973Z,99026.94
2022-11-23T14:47:28.852Z,99026.94
2022-11-23T14:49:55.714Z,99017.78
2022-11-23T14:52:23.978Z,99023.72
2022-11-23T14:54:51.423Z,99030.78
2022-11-23T15:06:56.885Z,99027.16
2022-11-23T15:09:32.262Z,99030.44
2022-11-23T15:12:17.619Z,99036.16
2022-11-23T15:14:50.729Z,99028.88
2022-11-23T15:17:21.500Z,99034.84
2022-11-23T15:19:58.138Z,99029.22
2022-11-23T15:22:24.803Z,99033.53
2022-11-23T15:32:42.241Z,99032.28
2022-11-23T15:35:12.364Z,99032.81
2022-11-23T15:37:48.509Z,99022.56
2022-11-23T15:40:15.844Z,99038.22
2022-11-23T15:42:42.680Z,99038.78
2022-11-23T15:45:27.633Z,99030.13
2022-11-23T15:47:54.051Z,99039.31
2022-11-23T15:50:20.453Z,99044.69
2022-11-23T15:52:47.915Z,99047.38
2022-11-23T15:55:14.923Z,99045.47
2022-11-23T15:57:41.891Z,99047.38
2022-11-23T16:00:10.103Z,99051.69
2022-11-23T16:02:37.057Z,99050.59
2022-11-23T16:05:09.716Z,99055.66
2022-11-23T16:07:49.114Z,99053.78
2022-11-23T16:10:23.206Z,99048.91
2022-11-23T16:12:51.181Z,99047.81
2022-11-23T16:15:32.673Z,99053.75
2022-11-23T16:17:59.664Z,99054.56
2022-11-23T16:20:26.545Z,99058.59
2022-11-23T16:22:53.749Z,99050.50
2022-11-23T16:25:29.328Z,99051.00
2022-11-23T16:28:05.875Z,99042.13
2022-11-23T16:30:36.548Z,99040.22
2022-11-23T16:33:03.078Z,99039.13
2022-11-23T16:35:29.532Z,99044.22
2022-11-23T16:37:55.925Z,99046.09
2022-11-23T16:40:22.317Z,99047.94
2022-11-23T16:42:51.157Z,99050.66
2022-11-23T16:45:17.513Z,99048.72
2022-11-23T16:47:54.029Z,99055.16
2022-11-23T16:50:20.741Z,99050.00
2022-11-23T16:52:47.110Z,99049.97
2022-11-23T16:55:13.572Z,99061.53
2022-11-23T16:57:40.226Z,99065.03
2022-11-23T17:00:08.498Z,99061.47
2022-11-23T17:02:34.972Z,99065.75
2022-11-23T17:05:01.537Z,99079.16
2022-11-23T17:07:28.162Z,99080.75
2022-11-23T17:09:54.663Z,99079.66
2022-11-23T17:12:21.064Z,99079.63
2022-11-23T17:14:48.900Z,99085.50
2022-11-23T17:17:22.528Z,99086.81
2022-11-23T17:19:50.033Z,99089.19
2022-11-23T17:22:17.415Z,99100.75
2022-11-23T17:24:44.205Z,99101.00
2022-11-23T17:27:13.161Z,99101.25
2022-11-23T17:29:42.208Z,99107.97
2022-11-23T17:32:12.540Z,99100.13
2022-11-23T17:34:39.361Z,99106.03
2022-11-23T17:37:06.550Z,99109.78
2022-11-23T17:39:33.713Z,99118.09
2022-11-23T17:42:04.879Z,99122.94
2022-11-23T17:44:31.898Z,99125.06
2022-11-23T17:46:59.877Z,99129.91
2022-11-23T17:49:28.483Z,99138.19
2022-11-23T17:51:55.716Z,99138.44
2022-11-23T17:54:22.904Z,99130.91
2022-11-23T17:56:50.552Z,99143.78
2022-11-23T17:59:17.707Z,99149.41
2022-11-23T18:01:44.395Z,99145.34
2022-11-23T18:04:10.948Z,99154.72
2022-11-23T18:06:39.697Z,99150.66
2022-11-23T18:09:06.664Z,99149.28
2022-11-23T18:11:33.144Z,99157.63
2022-11-23T18:13:59.591Z,99162.44
2022-11-23T18:16:26.175Z,99161.63
2022-11-23T18:18:52.686Z,99162.94
2022-11-23T18:21:19.218Z,99160.50
2022-11-23T18:23:45.642Z,99169.41
2022-11-23T18:26:14.933Z,99168.81
2022-11-23T18:28:41.419Z,99172.56
2022-11-23T18:31:08.604Z,99181.94
2022-11-23T18:33:35.111Z,99188.41
2022-11-23T18:36:05.275Z,99182.72
2022-11-23T18:41:04.771Z,99184.28
2022-11-23T18:43:31.422Z,99189.09
2022-11-23T18:45:57.938Z,99196.59
2022-11-23T18:48:24.345Z,99198.69
2022-11-23T18:50:51.416Z,99207.81
2022-11-23T18:53:18.828Z,99200.00
2022-11-23T18:55:45.208Z,99216.38
2022-11-23T18:58:11.545Z,99209.63
2022-11-23T19:00:37.984Z,99211.78
2022-11-23T19:03:04.729Z,99201.50
2022-11-23T19:05:33.463Z,99212.25
2022-11-23T19:08:04.175Z,99202.03
2022-11-23T19:10:31.741Z,99197.16
2022-11-23T19:13:03.697Z,99217.00
2022-11-23T19:15:34.787Z,99201.63
2022-11-23T19:18:01.404Z,99212.63
2022-11-23T19:20:29.761Z,99211.25
2022-11-23T19:22:56.338Z,99214.44
2022-11-23T19:25:22.895Z,99212.81
2022-11-23T19:27:54.024Z,99219.72
2022-11-23T19:30:22.771Z,99222.41
2022-11-23T19:32:49.281Z,99222.09
2022-11-23T19:35:15.857Z,99218.03
2022-11-23T19:37:42.360Z,99214.78
2022-11-23T19:40:09.079Z,99211.53
2022-11-23T19:42:35.976Z,99219.84
2022-11-23T19:45:02.746Z,99212.28
2022-11-23T19:47:29.677Z,99217.06
2022-11-23T19:49:59.147Z,99216.78
2022-11-23T19:52:41.708Z,99218.88
2022-11-23T19:55:12.186Z,99226.34
2022-11-23T19:57:41.978Z,99215.63
2022-11-23T20:00:09.508Z,99207.78
2022-11-23T20:02:36.060Z,99209.66
2022-11-23T20:05:02.770Z,99209.09
2022-11-23T20:07:47.740Z,99224.66
2022-11-23T20:10:14.490Z,99220.31
2022-11-23T20:12:41.097Z,99219.19
2022-11-23T20:15:08.401Z,99227.25
2022-11-23T20:17:34.854Z,99237.41
2022-11-23T20:25:17.078Z,99230.44
2022-11-23T20:27:43.490Z,99228.78
2022-11-23T20:30:10.096Z,99238.72
2022-11-23T20:32:36.500Z,99243.25
2022-11-23T20:35:02.930Z,99245.94
2022-11-23T20:37:29.329Z,99248.63
2022-11-23T20:39:55.758Z,99249.69
2022-11-23T20:42:22.342Z,99252.38
2022-11-23T20:44:48.770Z,99258.81
2022-11-23T20:47:28.110Z,99273.03
2022-11-23T20:49:54.802Z,99264.19
2022-11-23T20:52:21.471Z,99277.59
2022-11-23T20:54:48.255Z,99271.38
2022-11-23T20:57:15.069Z,99278.06
2022-11-23T20:59:41.976Z,99281.31
2022-11-23T21:02:09.061Z,99281.88
2022-11-23T21:04:35.846Z,99288.31
2022-11-23T21:07:02.619Z,99288.63
2022-11-23T21:09:29.036Z,99300.19
2022-11-23T21:21:42.458Z,99312.06
2022-11-23T21:24:09.234Z,99305.41
2022-11-23T21:26:35.695Z,99316.44
2022-11-23T21:29:04.126Z,99308.78
2022-11-23T21:31:30.634Z,99321.59
2022-11-23T21:34:05.123Z,99328.81
2022-11-23T21:36:33.346Z,99342.81
2022-11-23T21:39:01.185Z,99328.66
2022-11-23T21:41:27.579Z,99343.47
2022-11-23T21:43:54.521Z,99349.91
2022-11-23T21:46:23.267Z,99348.34
2022-11-23T21:48:51.593Z,99348.34
2022-11-23T21:51:18.147Z,99345.19
2022-11-23T21:53:44.848Z,99342.97
2022-11-23T21:56:15.253Z,99349.50
2022-11-23T21:58:42.366Z,99347.63
2022-11-23T22:01:11.461Z,99353.00
2022-11-23T22:03:45.109Z,99351.38
2022-11-23T22:06:18.868Z,99353.81
2022-11-23T22:08:50.916Z,99349.50
2022-11-23T22:11:18.291Z,99356.50
2022-11-23T22:13:45.074Z,99363.97
2022-11-23T22:16:15.387Z,99361.31
2022-11-23T22:18:41.850Z,99362.84
2022-11-23T22:21:09.440Z,99358.63
2022-11-23T22:23:35.965Z,99352.41
2022-11-23T22:26:03.234Z,99372.28
2022-11-23T22:28:33.173Z,99363.41
2022-11-23T22:30:59.592Z,99366.09
2022-11-23T22:33:26.936Z,99373.59
2022-11-23T22:35:53.344Z,99373.59
2022-11-23T22:38:20.000Z,99369.81
2022-11-23T22:40:46.815Z,99372.50
2022-11-23T22:43:13.212Z,99378.94
2022-11-23T22:45:39.688Z,99379.75
2022-11-23T22:48:06.208Z,99385.13
2022-11-23T22:50:32.727Z,99377.31
2022-11-23T22:52:59.520Z,99374.06
2022-11-23T22:55:25.900Z,99385.03
2022-11-23T22:57:52.337Z,99385.53
2022-11-23T23:00:18.932Z,99398.44
2022-11-23T23:02:46.136Z,99398.69
2022-11-23T23:05:12.754Z,99403.03
2022-11-23T23:07:39.243Z,99398.13
2022-11-23T23:10:06.002Z,99396.00
2022-11-23T23:12:32.394Z,99402.19
2022-11-23T23:14:58.894Z,99414.22
2022-11-23T23:17:25.330Z,99405.34
2022-11-23T23:19:51.680Z,99417.94
2022-11-23T23:22:18.058Z,99420.03
2022-11-23T23:24:45.719Z,99428.34
2022-11-23T23:27:12.311Z,99427.53
2022-11-23T23:29:38.892Z,99422.16
2022-11-23T23:32:05.515Z,99431.28
2022-11-23T23:34:32.344Z,99428.59
2022-11-23T23:36:58.970Z,99431.50
2022-11-23T23:39:25.363Z,99437.13
2022-11-23T23:41:51.712Z,99441.66
2022-11-23T23:44:19.621Z,99441.91
2022-11-23T23:46:46.054Z,99450.19
2022-11-23T23:49:12.438Z,99456.63
2022-11-23T23:51:38.818Z,99452.53
2022-11-23T23:54:05.248Z,99457.09
2022-11-23T23:56:31.620Z,99450.59
2022-11-23T23:58:59.186Z,99456.19
